Time;durP1;ratioP1;P1;durP2;ratioP2;P2;SDS_P1;SDS_P2;PMS_P1;PMS_P2;Temp;Humidity;BMP_temperature;BMP_pressure;BME280_temperature;BME280_humidity;BME280_pressure;Samples;Min_cycle;Max_cycle;Signal;HPM_P1;HPM_P2
2022/01/29 00:01:22;;;;;;;5.70;5.10;;;;;;;5.55;52.70;100009.03;5036851;28;20197;-59
2022/01/29 00:03:49;;;;;;;7.07;4.90;;;;;;;5.48;53.07;100008.69;5050640;28;20283;-59
2022/01/29 00:06:16;;;;;;;5.47;4.70;;;;;;;5.47;52.76;100015.47;5050211;28;20195;-59
2022/01/29 00:08:44;;;;;;;6.70;5.00;;;;;;;5.50;52.38;100017.28;5059088;28;20221;-59
2022/01/29 00:11:13;;;;;;;7.50;5.40;;;;;;;5.48;51.63;100013.78;5070091;28;20195;-59
2022/01/29 00:13:40;;;;;;;7.97;6.10;;;;;;;5.46;52.02;100015.41;5070142;28;20197;-58
2022/01/29 00:16:09;;;;;;;6.43;5.20;;;;;;;5.22;51.92;99971.84;5069988;28;20569;-59
2022/01/29 00:18:37;;;;;;;6.63;4.57;;;;;;;5.45;51.63;100001.78;5070164;28;20193;-58
2022/01/29 00:21:04;;;;;;;5.77;4.67;;;;;;;5.38;52.34;100003.19;5070264;28;20551;-59
2022/01/29 00:23:31;;;;;;;6.20;5.03;;;;;;;5.31;51.87;99996.06;5070206;28;20585;-58
2022/01/29 00:25:59;;;;;;;9.63;5.10;;;;;;;5.26;52.47;100005.19;5069985;28;20660;-59
2022/01/29 00:28:27;;;;;;;7.22;5.78;;;;;;;5.25;52.24;100003.44;5035400;28;20449;-58
2022/01/29 00:30:54;;;;;;;7.00;5.33;;;;;;;5.30;52.02;100013.84;5069865;28;20255;-59
2022/01/29 00:33:22;;;;;;;6.10;5.10;;;;;;;5.26;52.47;100007.75;5070000;28;20192;-59
2022/01/29 00:35:49;;;;;;;6.67;4.90;;;;;;;5.25;53.04;100018.72;5069870;28;20285;-59
2022/01/29 00:38:16;;;;;;;5.33;4.83;;;;;;;5.23;52.99;100022.88;5069937;28;20193;-58
2022/01/29 00:40:45;;;;;;;6.20;5.10;;;;;;;5.27;52.69;100023.91;5070237;28;20202;-59
2022/01/29 00:43:12;;;;;;;6.83;4.90;;;;;;;5.25;52.78;100016.19;5069883;28;20569;-59
2022/01/29 00:45:39;;;;;;;6.10;5.40;;;;;;;5.25;52.86;100017.84;5070136;28;20284;-58
2022/01/29 00:48:06;;;;;;;7.40;5.50;;;;;;;5.15;53.00;100021.66;5070180;28;20221;-59
2022/01/29 00:50:34;;;;;;;6.10;5.50;;;;;;;5.12;53.37;100023.19;5069837;28;20206;-60
2022/01/29 00:53:01;;;;;;;7.93;5.70;;;;;;;5.13;53.21;100018.19;5070054;28;20225;-58
2022/01/29 00:55:28;;;;;;;7.60;5.90;;;;;;;5.07;53.65;100024.66;5069684;28;20204;-59
2022/01/29 00:57:55;;;;;;;9.53;5.77;;;;;;;5.05;53.97;100021.19;5069913;28;20202;-59
2022/01/29 01:00:22;;;;;;;7.83;6.00;;;;;;;5.00;53.63;100022.63;5069831;28;20657;-60
2022/01/29 01:02:49;;;;;;;6.20;5.60;;;;;;;5.03;54.00;100030.38;5069738;28;20675;-59
2022/01/29 01:05:16;;;;;;;8.37;5.80;;;;;;;5.02;53.89;100023.56;5069695;28;20195;-59
2022/01/29 01:07:44;;;;;;;6.57;5.53;;;;;;;4.93;54.33;100036.75;5071516;28;20237;-59
2022/01/29 01:10:13;;;;;;;8.20;6.13;;;;;;;4.97;53.86;100036.06;5073387;28;20260;-58
2022/01/29 01:12:40;;;;;;;8.23;6.40;;;;;;;4.93;53.96;100021.47;5073838;28;20267;-59
2022/01/29 01:15:09;;;;;;;6.83;5.63;;;;;;;4.89;53.60;100016.19;5073400;28;20658;-59
2022/01/29 01:17:36;;;;;;;8.03;5.60;;;;;;;4.98;53.90;99998.75;5073610;28;20192;-58
2022/01/29 01:20:04;;;;;;;7.43;5.50;;;;;;;4.93;54.02;99998.56;5073600;28;20188;-59
2022/01/29 01:22:31;;;;;;;6.13;5.33;;;;;;;4.94;54.51;99986.72;5073225;28;20280;-58
2022/01/29 01:25:00;;;;;;;8.90;6.63;;;;;;;4.90;53.50;99984.81;5073091;28;20198;-59
2022/01/29 01:27:26;;;;;;;8.87;6.10;;;;;;;4.95;53.67;99980.78;5073416;28;20197;-59
2022/01/29 01:29:54;;;;;;;9.35;7.03;;;;;;;4.96;53.21;99975.78;5071721;28;20536;-59
2022/01/29 01:32:21;;;;;;;9.23;6.33;;;;;;;5.00;53.52;99981.91;5050655;28;20278;-59
2022/01/29 01:34:52;;;;;;;8.30;5.93;;;;;;;4.98;53.95;99989.44;5036738;28;20234;-60
2022/01/29 01:37:31;;;;;;;8.90;5.70;;;;;;;5.01;53.97;99987.03;5036239;28;20671;-60
2022/01/29 01:39:59;;;;;;;6.63;5.87;;;;;;;4.99;53.90;99980.16;5032989;28;20727;-59
2022/01/29 01:42:26;;;;;;;7.03;5.47;;;;;;;5.00;53.38;99984.44;5033382;28;20199;-56
2022/01/29 01:44:53;;;;;;;7.60;6.60;;;;;;;5.00;53.89;99992.09;5033027;28;20318;-56
2022/01/29 01:47:20;;;;;;;7.30;5.83;;;;;;;4.86;53.90;99985.47;5033062;28;21058;-56
2022/01/29 01:49:48;;;;;;;6.40;4.90;;;;;;;4.87;53.95;99987.22;5032857;28;20250;-56
2022/01/29 01:52:15;;;;;;;9.83;6.47;;;;;;;4.85;54.58;99986.28;5032981;28;20304;-56
2022/01/29 01:54:44;;;;;;;11.60;6.80;;;;;;;4.80;53.66;99982.63;5032802;28;20292;-56
2022/01/29 01:57:12;;;;;;;6.13;5.40;;;;;;;4.84;54.27;99987.06;5032588;28;20202;-56
2022/01/29 01:59:40;;;;;;;7.67;5.97;;;;;;;4.89;54.08;99983.94;5051595;28;20575;-61
2022/01/29 02:02:06;;;;;;;6.20;5.27;;;;;;;4.80;53.47;99980.97;5052333;28;20287;-59
2022/01/29 02:04:34;;;;;;;6.90;5.13;;;;;;;4.84;53.78;99994.69;5052488;28;20203;-59
2022/01/29 02:07:02;;;;;;;7.40;6.00;;;;;;;4.75;53.90;99985.00;5052206;28;20606;-60
2022/01/29 02:09:30;;;;;;;6.73;5.27;;;;;;;4.53;53.45;99938.97;5052540;28;20221;-59
2022/01/29 02:12:00;;;;;;;9.53;6.80;;;;;;;4.75;53.27;99979.91;5052324;28;20192;-60
2022/01/29 02:14:31;;;;;;;7.17;5.63;;;;;;;4.74;53.31;99989.19;5035145;28;20740;-59
2022/01/29 02:16:59;;;;;;;7.17;5.60;;;;;;;4.74;53.59;99983.22;5032214;28;20195;-59
2022/01/29 02:19:26;;;;;;;8.73;5.47;;;;;;;4.69;53.30;99974.50;5031218;28;20210;-59
2022/01/29 02:21:54;;;;;;;9.23;5.27;;;;;;;4.71;53.80;99978.88;5032019;28;20189;-59
2022/01/29 02:24:21;;;;;;;6.20;5.37;;;;;;;4.75;52.79;99985.00;5032383;28;20194;-59
2022/01/29 02:26:48;;;;;;;7.10;5.27;;;;;;;4.75;52.64;99979.91;5032047;28;20584;-59
2022/01/29 02:29:16;;;;;;;8.52;5.95;;;;;;;4.70;52.14;99972.03;5033498;28;20985;-60
2022/01/29 02:31:48;;;;;;;6.43;5.10;;;;;;;4.70;51.81;99977.13;5031396;28;20195;-60
2022/01/29 02:34:15;;;;;;;6.67;5.13;;;;;;;4.69;52.14;99977.06;5031465;28;20288;-60
2022/01/29 02:36:43;;;;;;;6.60;4.63;;;;;;;4.73;51.59;99976.38;5038287;28;20202;-60
2022/01/29 02:39:13;;;;;;;4.83;4.33;;;;;;;4.70;51.24;99973.69;5069054;28;20659;-59
2022/01/29 02:41:43;;;;;;;7.40;4.87;;;;;;;4.73;51.26;99981.47;5071666;28;20284;-59
2022/01/29 02:44:14;;;;;;;5.68;4.72;;;;;;;4.76;51.20;99987.59;5071280;28;20468;-59
2022/01/29 02:46:50;;;;;;;4.70;3.93;;;;;;;4.76;50.79;99982.50;5071603;28;20208;-60
2022/01/29 02:49:19;;;;;;;6.43;4.93;;;;;;;4.75;51.13;99992.63;5071950;28;20220;-59
2022/01/29 02:51:48;;;;;;;6.60;4.63;;;;;;;4.72;51.13;99984.84;5071706;28;20191;-59
2022/01/29 02:54:18;;;;;;;5.70;4.60;;;;;;;4.71;50.75;99994.13;5071444;28;20202;-60
2022/01/29 02:56:45;;;;;;;5.67;4.67;;;;;;;4.69;50.73;99998.28;5071288;28;20192;-60
2022/01/29 02:59:12;;;;;;;4.30;3.90;;;;;;;4.62;51.16;100005.53;5071244;28;20279;-60
2022/01/29 03:01:39;;;;;;;6.60;4.17;;;;;;;4.71;50.58;99998.34;5071610;28;20190;-59
2022/01/29 03:04:06;;;;;;;5.77;4.23;;;;;;;4.72;51.13;99995.03;5071531;28;20218;-60
2022/01/29 03:06:34;;;;;;;4.07;3.67;;;;;;;4.65;50.17;99988.75;5071265;28;20279;-58
2022/01/29 03:09:01;;;;;;;6.10;4.40;;;;;;;4.54;50.78;99976.31;5070929;28;20307;-59
2022/01/29 03:11:29;;;;;;;5.53;4.60;;;;;;;4.61;50.69;99983.47;5071074;28;20206;-59
2022/01/29 03:13:56;;;;;;;6.93;4.67;;;;;;;4.64;50.14;99988.69;5068232;28;20193;-59
2022/01/29 03:16:23;;;;;;;5.10;4.00;;;;;;;4.55;50.47;99984.03;5071016;28;20197;-59
2022/01/29 03:18:50;;;;;;;6.43;4.33;;;;;;;4.54;49.59;99987.38;5063996;28;20204;-59
2022/01/29 03:21:17;;;;;;;5.37;4.27;;;;;;;4.50;49.49;99985.50;5068208;28;20593;-60
2022/01/29 03:23:44;;;;;;;6.43;4.60;;;;;;;4.45;49.82;99978.44;5070833;28;20192;-59
2022/01/29 03:26:11;;;;;;;5.27;4.53;;;;;;;4.44;50.01;99990.28;5059117;28;20204;-59
2022/01/29 03:28:39;;;;;;;6.27;4.33;;;;;;;4.44;49.70;99980.13;5045343;28;20197;-59
2022/01/29 03:31:06;;;;;;;5.53;4.90;;;;;;;4.44;50.27;99981.78;5062497;28;20946;-60
2022/01/29 03:33:33;;;;;;;4.70;4.20;;;;;;;4.48;49.87;99992.16;5070949;28;20208;-60
2022/01/29 03:36:00;;;;;;;5.40;4.10;;;;;;;4.49;50.50;99987.94;5070763;28;20198;-59
2022/01/29 03:38:27;;;;;;;4.50;4.10;;;;;;;4.49;49.96;99990.50;5070541;28;20733;-59
2022/01/29 03:40:56;;;;;;;4.83;4.20;;;;;;;4.50;50.08;99993.13;5058147;28;20192;-59
2022/01/29 03:43:28;;;;;;;7.33;4.53;;;;;;;4.44;50.99;99997.03;5049551;28;20243;-59
2022/01/29 03:45:57;;;;;;;5.37;4.17;;;;;;;4.44;51.34;100000.47;5048131;28;20238;-59
2022/01/29 03:48:24;;;;;;;6.57;4.30;;;;;;;4.46;51.06;100003.94;5050327;28;20181;-60
2022/01/29 03:50:51;;;;;;;9.23;4.90;;;;;;;4.43;51.94;100001.25;5047231;28;20206;-59
2022/01/29 03:53:18;;;;;;;5.87;4.70;;;;;;;4.48;52.29;100014.19;5050186;28;20189;-60
2022/01/29 03:55:45;;;;;;;6.77;5.17;;;;;;;4.41;52.85;100009.59;5050317;28;20185;-59
2022/01/29 03:58:12;;;;;;;9.90;5.40;;;;;;;4.43;53.33;100011.44;5047456;28;20203;-59
2022/01/29 04:00:39;;;;;;;5.63;4.70;;;;;;;4.43;53.25;100008.88;5064693;28;20199;-59
2022/01/29 04:03:08;;;;;;;7.70;5.40;;;;;;;4.25;54.17;99984.22;5070206;28;20286;-60
2022/01/29 04:05:35;;;;;;;6.90;5.80;;;;;;;4.36;54.18;100009.41;5070516;28;20194;-59
2022/01/29 04:08:02;;;;;;;8.93;5.83;;;;;;;4.32;53.90;100004.94;5070324;28;21147;-59
2022/01/29 04:10:29;;;;;;;8.80;5.80;;;;;;;4.33;54.47;100016.00;5070428;28;21033;-59
2022/01/29 04:12:57;;;;;;;8.17;5.60;;;;;;;4.40;54.10;100007.84;5070658;28;20196;-59
2022/01/29 04:15:24;;;;;;;6.23;5.50;;;;;;;4.17;54.96;99976.25;5070458;28;20203;-59
2022/01/29 04:17:51;;;;;;;6.67;5.67;;;;;;;4.29;55.30;100011.53;5070466;28;20192;-59
2022/01/29 04:20:21;;;;;;;7.30;5.67;;;;;;;4.26;55.58;100011.41;5070327;28;20183;-58
2022/01/29 04:22:48;;;;;;;5.27;4.77;;;;;;;4.30;54.90;100011.63;5070099;28;20694;-59
2022/01/29 04:25:15;;;;;;;9.63;6.10;;;;;;;4.32;54.93;100009.16;5070254;28;20196;-59
2022/01/29 04:27:44;;;;;;;5.83;5.23;;;;;;;4.27;55.12;100019.09;5070262;28;20279;-59
2022/01/29 04:30:23;;;;;;;6.77;5.33;;;;;;;4.35;55.62;100002.56;5069928;28;20227;-59
2022/01/29 04:33:00;;;;;;;8.10;6.30;;;;;;;4.37;54.66;100017.91;5068821;28;20469;-55
2022/01/29 04:35:28;;;;;;;7.43;5.77;;;;;;;4.40;55.17;100023.13;5067503;28;20573;-55
2022/01/29 04:37:55;;;;;;;6.60;5.63;;;;;;;4.36;55.31;100011.06;5058164;28;20204;-55
2022/01/29 04:40:22;;;;;;;9.63;5.83;;;;;;;4.40;55.59;100023.13;5049873;28;20730;-55
2022/01/29 04:42:49;;;;;;;5.80;4.97;;;;;;;4.36;55.30;100024.66;5053787;28;20192;-56
2022/01/29 04:45:16;;;;;;;8.00;5.53;;;;;;;4.41;55.54;100027.41;5062324;28;20195;-55
2022/01/29 04:47:43;;;;;;;7.97;6.10;;;;;;;4.40;56.18;100031.63;5073396;28;20455;-56
2022/01/29 04:50:11;;;;;;;6.27;4.90;;;;;;;4.37;55.19;100025.53;5073957;28;20224;-55
2022/01/29 04:52:39;;;;;;;5.53;4.90;;;;;;;4.38;55.28;100028.13;5073636;28;20197;-56
2022/01/29 04:55:08;;;;;;;6.93;5.33;;;;;;;4.35;55.26;100033.06;5073663;28;20233;-55
2022/01/29 04:57:36;;;;;;;5.27;4.70;;;;;;;4.33;55.53;100033.81;5073785;28;20196;-57
2022/01/29 05:00:07;;;;;;;8.73;5.50;;;;;;;4.38;55.37;100045.94;5073967;28;20196;-55
2022/01/29 05:02:34;;;;;;;7.47;5.43;;;;;;;4.37;55.50;100035.72;5073778;28;20190;-56
2022/01/29 05:05:01;;;;;;;7.30;5.70;;;;;;;4.36;55.26;100050.09;5073587;28;20192;-55
2022/01/29 05:07:28;;;;;;;5.50;5.00;;;;;;;4.32;55.30;100044.75;5073434;28;20232;-56
2022/01/29 05:09:56;;;;;;;5.80;4.63;;;;;;;4.24;55.33;100046.06;5073320;28;20206;-55
2022/01/29 05:12:28;;;;;;;6.73;5.50;;;;;;;4.29;54.58;100042.06;5073281;28;20279;-55
2022/01/29 05:15:08;;;;;;;7.13;5.60;;;;;;;4.12;54.65;100031.94;5071652;28;20655;-56
2022/01/29 05:28:33;;;;;;;6.17;5.23;;;;;;;4.06;55.71;100035.84;5073313;28;20185;-56
2022/01/29 05:30:59;;;;;;;9.27;6.73;;;;;;;4.06;56.25;100036.72;5073215;28;20231;-56
2022/01/29 05:33:26;;;;;;;7.90;6.27;;;;;;;4.05;55.59;100045.16;5072989;28;20204;-56
2022/01/29 05:35:53;;;;;;;8.23;7.22;;;;;;;4.07;56.00;100042.66;5072258;28;20544;-56
2022/01/29 05:38:20;;;;;;;8.00;6.13;;;;;;;4.10;55.96;100051.34;5073048;28;20201;-56
2022/01/29 05:40:48;;;;;;;7.83;6.33;;;;;;;4.13;56.17;100055.69;5073009;28;20195;-56
2022/01/29 05:43:15;;;;;;;7.13;6.03;;;;;;;4.09;56.32;100069.06;5073000;28;20206;-56
2022/01/29 05:45:42;;;;;;;7.73;6.30;;;;;;;4.12;56.22;100069.22;5072973;28;20286;-56
2022/01/29 05:48:09;;;;;;;6.17;5.47;;;;;;;4.20;54.96;100074.69;5072843;28;20203;-56
2022/01/29 05:50:36;;;;;;;7.37;5.90;;;;;;;4.23;54.71;100074.84;5072580;28;20226;-55
2022/01/29 05:53:03;;;;;;;7.37;5.73;;;;;;;4.12;54.58;100043.78;5072143;28;20613;-55
2022/01/29 05:55:30;;;;;;;8.40;6.10;;;;;;;4.20;55.06;100061.97;5072751;28;20275;-56
2022/01/29 05:57:59;;;;;;;10.00;6.37;;;;;;;4.34;54.15;100081.34;5072714;28;20573;-55
2022/01/29 06:00:26;;;;;;;8.90;6.57;;;;;;;4.39;54.11;100085.88;5072437;28;20187;-55
2022/01/29 06:03:00;;;;;;;8.60;6.20;;;;;;;4.42;53.95;100088.53;5072414;28;20199;-55
2022/01/29 06:05:26;;;;;;;7.17;6.50;;;;;;;4.52;53.02;100087.34;5072406;28;20204;-55
2022/01/29 06:07:53;;;;;;;8.13;6.67;;;;;;;4.60;53.26;100088.56;5072268;28;20225;-55
2022/01/29 06:10:20;;;;;;;8.67;6.33;;;;;;;4.74;52.83;100101.19;5072307;28;20805;-55
2022/01/29 06:12:59;;;;;;;6.03;5.43;;;;;;;4.76;52.98;100101.25;5072269;28;20210;-57
2022/01/29 06:15:27;;;;;;;5.83;5.27;;;;;;;4.78;53.07;100102.19;5072470;28;20292;-57
2022/01/29 06:17:55;;;;;;;7.47;5.93;;;;;;;4.83;52.36;100105.84;5072401;28;21014;-56
2022/01/29 06:20:22;;;;;;;7.47;5.70;;;;;;;4.86;52.81;100106.00;5072328;28;20190;-56
2022/01/29 06:22:49;;;;;;;8.00;5.77;;;;;;;4.98;52.60;100105.69;5072295;28;20193;-55
2022/01/29 06:25:16;;;;;;;8.17;5.17;;;;;;;5.09;52.00;100104.53;5072057;28;20560;-55
2022/01/29 06:27:43;;;;;;;6.83;6.10;;;;;;;5.05;52.16;100107.75;5072304;28;20205;-55
2022/01/29 06:30:11;;;;;;;7.40;5.40;;;;;;;5.11;52.68;100108.06;5071887;28;20223;-56
2022/01/29 06:32:38;;;;;;;6.10;4.80;;;;;;;5.16;51.60;100106.59;5071876;28;20286;-56
2022/01/29 06:35:06;;;;;;;6.27;5.00;;;;;;;5.28;51.87;100114.78;5071771;28;20218;-59
2022/01/29 06:37:33;;;;;;;7.20;5.30;;;;;;;5.33;52.39;100115.88;5071683;28;20192;-56
2022/01/29 06:40:00;;;;;;;5.53;5.00;;;;;;;5.44;51.42;100106.22;5071620;28;20185;-55
2022/01/29 06:42:27;;;;;;;6.03;5.00;;;;;;;5.50;51.52;100120.09;5071620;28;20669;-56
2022/01/29 06:44:54;;;;;;;6.70;5.37;;;;;;;5.49;51.63;100122.56;5064374;28;20208;-56
2022/01/29 06:47:22;;;;;;;5.80;5.27;;;;;;;5.56;51.81;100125.47;5049664;28;20189;-55
2022/01/29 06:49:49;;;;;;;6.43;4.77;;;;;;;5.32;51.67;100073.38;5050818;28;20182;-57
2022/01/29 06:52:16;;;;;;;9.97;5.47;;;;;;;5.56;52.29;100135.66;5056860;28;20199;-55
2022/01/29 06:54:43;;;;;;;7.13;6.10;;;;;;;5.65;52.30;100132.66;5064945;28;20287;-56
2022/01/29 06:57:10;;;;;;;6.93;5.23;;;;;;;5.56;52.03;100120.38;5068784;28;20204;-56
2022/01/29 06:59:37;;;;;;;7.20;5.73;;;;;;;5.71;52.37;100130.41;5071175;28;20642;-56
2022/01/29 07:02:05;;;;;;;8.20;5.30;;;;;;;5.45;51.66;100107.94;5071164;28;20190;-57
2022/01/29 07:04:33;;;;;;;6.17;5.47;;;;;;;5.74;51.87;100131.38;5071124;28;20191;-55
2022/01/29 07:07:00;;;;;;;7.13;6.17;;;;;;;5.74;51.38;100135.66;5068828;28;20204;-56
2022/01/29 07:09:27;;;;;;;6.07;5.20;;;;;;;5.78;51.46;100137.50;5071199;28;20284;-56
2022/01/29 07:11:56;;;;;;;7.27;6.37;;;;;;;5.84;51.14;100137.78;5069232;28;20225;-55
2022/01/29 07:14:24;;;;;;;8.10;6.43;;;;;;;5.90;51.73;100145.75;5052825;28;20204;-56
2022/01/29 07:16:51;;;;;;;7.37;6.00;;;;;;;5.91;51.49;100139.84;5070661;28;20284;-56
2022/01/29 07:19:18;;;;;;;6.40;5.57;;;;;;;5.92;50.92;100144.13;5070782;28;20196;-56
2022/01/29 07:21:46;;;;;;;6.97;6.27;;;;;;;5.98;51.50;100144.41;5070751;28;20562;-56
2022/01/29 07:24:13;;;;;;;6.57;5.90;;;;;;;6.03;51.19;100135.28;5070748;28;20191;-56
2022/01/29 07:26:40;;;;;;;6.47;5.50;;;;;;;5.99;51.07;100132.53;5070693;28;20199;-56
2022/01/29 07:29:07;;;;;;;7.07;6.37;;;;;;;6.00;51.02;100140.25;5068930;28;20283;-56
2022/01/29 07:31:34;;;;;;;8.13;6.47;;;;;;;5.96;51.10;100137.50;5053604;28;20237;-56
2022/01/29 07:34:00;;;;;;;10.33;6.63;;;;;;;5.98;51.43;100141.88;5048970;28;20206;-55
2022/01/29 07:36:27;;;;;;;12.20;6.77;;;;;;;5.98;52.09;100133.34;5050293;28;20552;-55
2022/01/29 07:38:56;;;;;;;9.00;7.27;;;;;;;6.06;51.52;100147.31;5048240;28;20194;-56
2022/01/29 07:41:22;;;;;;;9.57;7.03;;;;;;;6.13;51.43;100156.97;5049398;28;20207;-55
2022/01/29 07:43:49;;;;;;;10.37;6.70;;;;;;;6.06;52.41;100155.84;5047076;28;20199;-56
2022/01/29 07:46:16;;;;;;;8.33;6.70;;;;;;;6.13;51.17;100152.75;5055822;28;20577;-56
2022/01/29 07:48:43;;;;;;;10.30;8.03;;;;;;;6.12;51.57;100161.22;5069364;28;20293;-55
2022/01/29 07:51:10;;;;;;;9.70;7.10;;;;;;;6.20;51.64;100159.88;5066942;28;20589;-56
2022/01/29 07:53:37;;;;;;;9.50;7.13;;;;;;;6.28;50.87;100157.66;5054548;28;20320;-59
2022/01/29 07:56:05;;;;;;;9.70;7.30;;;;;;;6.28;50.70;100161.06;5049808;28;20522;-60
2022/01/29 07:58:32;;;;;;;17.07;7.83;;;;;;;6.25;51.42;100158.38;5063511;28;20207;-60
2022/01/29 08:00:59;;;;;;;9.90;7.27;;;;;;;6.22;51.78;100157.38;5069525;28;20275;-60
2022/01/29 08:03:26;;;;;;;7.63;6.40;;;;;;;6.22;51.08;100157.38;5069730;28;20276;-60
2022/01/29 08:05:53;;;;;;;11.50;8.00;;;;;;;6.17;51.70;100159.72;5069797;28;20581;-60
2022/01/29 08:08:20;;;;;;;11.40;7.87;;;;;;;6.25;51.70;100158.38;5069494;28;20229;-60
2022/01/29 08:10:47;;;;;;;7.20;6.30;;;;;;;6.36;51.53;100159.72;5057436;28;20230;-62
2022/01/29 08:13:15;;;;;;;8.27;6.90;;;;;;;6.50;51.88;100156.09;5049537;28;20201;-60
2022/01/29 08:15:42;;;;;;;12.93;7.80;;;;;;;6.62;51.61;100162.53;5056227;28;20225;-61
2022/01/29 08:18:09;;;;;;;10.87;7.93;;;;;;;6.74;50.99;100168.13;5047164;28;20188;-61
2022/01/29 08:20:36;;;;;;;8.37;7.50;;;;;;;6.87;50.79;100172.94;5048834;28;20270;-61
2022/01/29 08:23:07;;;;;;;9.83;7.57;;;;;;;6.91;50.17;100162.06;5048828;28;20186;-61
2022/01/29 08:25:34;;;;;;;8.97;7.70;;;;;;;6.97;50.19;100170.84;5046732;28;20198;-60
2022/01/29 08:28:01;;;;;;;10.10;7.87;;;;;;;7.15;49.50;100160.50;5048890;28;20620;-61
2022/01/29 08:30:29;;;;;;;9.70;8.00;;;;;;;7.23;49.54;100173.56;5064392;28;20217;-61
2022/01/29 08:32:56;;;;;;;8.03;7.23;;;;;;;7.35;49.23;100159.59;5060037;28;20228;-61
2022/01/29 08:35:23;;;;;;;10.50;7.70;;;;;;;7.40;48.62;100175.13;5062875;28;20212;-59
2022/01/29 08:37:50;;;;;;;8.63;7.73;;;;;;;7.49;48.61;100178.94;5059642;28;20198;-60
2022/01/29 08:40:17;;;;;;;9.43;7.60;;;;;;;7.42;49.06;100182.03;5069137;28;20202;-60
2022/01/29 08:42:44;;;;;;;7.90;7.10;;;;;;;7.45;49.25;100192.38;5064352;28;20209;-60
2022/01/29 08:45:13;;;;;;;10.33;7.57;;;;;;;7.47;49.12;100184.78;5069534;28;20193;-61
2022/01/29 08:47:41;;;;;;;9.80;8.00;;;;;;;7.31;49.28;100151.75;5069167;28;20197;-60
2022/01/29 08:50:10;;;;;;;10.07;7.23;;;;;;;7.58;48.96;100171.59;5069285;28;20208;-60
2022/01/29 08:52:37;;;;;;;11.37;8.03;;;;;;;7.62;48.84;100180.25;5069077;28;20195;-61
2022/01/29 08:55:05;;;;;;;12.70;8.23;;;;;;;7.68;49.19;100186.50;5069153;28;20208;-56
2022/01/29 08:57:32;;;;;;;12.63;8.77;;;;;;;7.73;49.34;100184.97;5069287;28;20205;-56
2022/01/29 09:00:00;;;;;;;9.43;7.97;;;;;;;7.80;48.65;100190.34;5069623;28;20569;-57
2022/01/29 09:02:27;;;;;;;9.10;8.07;;;;;;;7.73;49.31;100191.78;5069633;28;20189;-57
2022/01/29 09:04:57;;;;;;;8.67;7.77;;;;;;;7.66;49.31;100188.09;5069245;28;20278;-57
2022/01/29 09:07:24;;;;;;;10.80;8.60;;;;;;;7.66;49.38;100197.47;5068813;28;20696;-56
2022/01/29 09:09:51;;;;;;;12.03;8.87;;;;;;;7.71;48.53;100188.28;5069118;28;20195;-56
2022/01/29 09:12:18;;;;;;;10.77;7.83;;;;;;;7.80;48.32;100187.78;5069193;28;20230;-56
2022/01/29 09:14:45;;;;;;;10.17;7.50;;;;;;;7.92;47.49;100185.66;5068970;28;20648;-56
2022/01/29 09:17:12;;;;;;;7.93;6.63;;;;;;;7.79;47.03;100179.22;5069391;28;20216;-56
2022/01/29 09:19:39;;;;;;;10.73;7.37;;;;;;;7.83;46.50;100173.41;5060513;28;20194;-55
2022/01/29 09:22:07;;;;;;;7.97;6.60;;;;;;;7.80;46.19;100180.09;5048518;28;20648;-56
2022/01/29 09:24:34;;;;;;;11.53;7.50;;;;;;;7.82;47.00;100181.91;5062643;28;20629;-56
2022/01/29 09:27:01;;;;;;;8.90;6.97;;;;;;;7.84;46.64;100176.84;5068836;28;20198;-56
2022/01/29 09:29:28;;;;;;;9.30;7.70;;;;;;;8.04;47.01;100173.34;5054849;28;20622;-56
2022/01/29 09:31:55;;;;;;;11.13;7.57;;;;;;;8.00;47.51;100174.91;5059748;28;20719;-55
2022/01/29 09:34:22;;;;;;;9.73;7.43;;;;;;;8.06;47.29;100169.16;5072442;28;20192;-56
2022/01/29 09:36:49;;;;;;;8.57;7.00;;;;;;;8.17;46.72;100171.28;5072374;28;20199;-56
2022/01/29 09:39:17;;;;;;;9.75;7.38;;;;;;;8.25;46.71;100171.56;5043945;28;20458;-62
2022/01/29 09:41:45;;;;;;;9.70;7.40;;;;;;;8.25;46.93;100176.69;5049772;28;20195;-63
2022/01/29 09:44:13;;;;;;;9.03;6.57;;;;;;;8.20;46.93;100175.66;5053751;28;20196;-62
2022/01/29 09:46:43;;;;;;;8.57;7.27;;;;;;;8.14;47.22;100183.97;5071508;28;20260;-60
2022/01/29 09:49:11;;;;;;;14.93;8.07;;;;;;;8.16;47.62;100177.22;5052521;28;20210;-61
2022/01/29 09:51:39;;;;;;;8.03;6.67;;;;;;;8.27;47.25;100177.63;5052033;28;20294;-61
2022/01/29 09:54:06;;;;;;;8.77;6.93;;;;;;;8.42;46.77;100159.41;5052443;28;20202;-61
2022/01/29 09:56:34;;;;;;;7.53;6.77;;;;;;;8.52;46.69;100161.44;5052093;28;20194;-61
2022/01/29 09:59:01;;;;;;;9.57;8.30;;;;;;;8.72;46.32;100163.91;5051932;28;20645;-61
2022/01/29 10:01:28;;;;;;;8.60;7.67;;;;;;;8.80;45.76;100166.72;5052227;28;20583;-60
2022/01/29 10:04:03;;;;;;;10.60;7.63;;;;;;;9.01;45.37;100167.41;5051926;28;20288;-61
2022/01/29 10:06:30;;;;;;;11.17;7.00;;;;;;;8.84;45.09;100166.84;5052227;28;20636;-59
2022/01/29 10:08:59;;;;;;;8.70;7.10;;;;;;;8.85;45.41;100163.47;5051984;28;20315;-61
2022/01/29 10:11:27;;;;;;;10.13;7.57;;;;;;;8.98;45.44;100164.78;5052197;28;20219;-61
2022/01/29 10:14:00;;;;;;;8.60;7.50;;;;;;;9.08;45.22;100165.94;5052235;28;20212;-60
2022/01/29 10:16:29;;;;;;;8.80;6.67;;;;;;;9.06;44.97;100162.47;5052118;28;20195;-60
2022/01/29 10:19:05;;;;;;;8.23;7.33;;;;;;;9.05;45.23;100164.16;5052037;28;20654;-60
2022/01/29 10:21:34;;;;;;;8.77;7.87;;;;;;;9.29;44.64;100161.50;5051848;28;20194;-61
2022/01/29 10:24:04;;;;;;;12.20;8.23;;;;;;;9.50;44.31;100155.34;5051971;28;20634;-60
2022/01/29 10:26:34;;;;;;;12.90;8.47;;;;;;;9.62;44.22;100152.28;5051445;28;20276;-60
2022/01/29 10:29:03;;;;;;;10.30;7.73;;;;;;;9.49;43.83;100142.47;5051365;28;20202;-61
2022/01/29 10:31:40;;;;;;;10.97;7.77;;;;;;;9.36;44.29;100158.31;5051608;28;20764;-60
2022/01/29 10:34:19;;;;;;;6.70;6.10;;;;;;;9.17;44.31;100159.44;5051673;28;20195;-59
2022/01/29 10:36:46;;;;;;;7.67;6.90;;;;;;;9.04;44.83;100148.72;5051470;28;20196;-60
2022/01/29 10:39:13;;;;;;;9.50;6.53;;;;;;;9.00;44.90;100149.44;5050915;28;20200;-61
2022/01/29 10:41:40;;;;;;;9.18;7.10;;;;;;;8.82;44.17;100148.00;5051265;28;20442;-60
2022/01/29 10:44:12;;;;;;;6.87;6.17;;;;;;;8.78;44.62;100156.41;5051677;28;20196;-61
2022/01/29 10:46:41;;;;;;;7.33;5.87;;;;;;;8.69;45.01;100130.47;5047882;28;20220;-60
2022/01/29 10:49:09;;;;;;;7.27;6.53;;;;;;;8.84;44.84;100156.59;5051158;28;20905;-60
2022/01/29 10:51:36;;;;;;;7.33;6.53;;;;;;;8.83;45.24;100159.13;5064467;28;20296;-61
2022/01/29 10:54:17;;;;;;;7.00;6.23;;;;;;;8.98;44.92;100148.53;5071417;28;20302;-61
2022/01/29 10:56:56;;;;;;;7.00;6.30;;;;;;;9.08;44.90;100154.00;5070770;28;20198;-60
2022/01/29 10:59:25;;;;;;;8.87;7.00;;;;;;;9.13;44.54;100143.88;5070566;28;20267;-61
2022/01/29 11:01:54;;;;;;;7.00;6.30;;;;;;;9.19;44.00;100149.22;5070241;28;20558;-61
2022/01/29 11:04:22;;;;;;;6.90;5.97;;;;;;;9.20;43.89;100145.84;5065023;28;20202;-61
2022/01/29 11:06:52;;;;;;;7.57;6.47;;;;;;;9.35;43.56;100154.88;5043787;28;20217;-60
2022/01/29 11:09:19;;;;;;;7.00;6.30;;;;;;;9.52;43.18;100142.56;5050111;28;20196;-59
2022/01/29 11:11:47;;;;;;;8.30;6.63;;;;;;;9.63;42.99;100138.66;5049905;28;20712;-61
2022/01/29 11:14:17;;;;;;;9.40;6.77;;;;;;;9.86;42.70;100140.19;5048093;28;20184;-60
2022/01/29 11:16:47;;;;;;;7.33;6.07;;;;;;;10.02;41.79;100139.81;5050074;28;20200;-60
2022/01/29 11:19:16;;;;;;;6.23;5.63;;;;;;;9.96;41.56;100134.50;5048923;28;21056;-61
2022/01/29 11:21:44;;;;;;;6.80;6.10;;;;;;;9.99;41.39;100129.47;5057010;28;20196;-61
2022/01/29 11:24:12;;;;;;;7.33;6.00;;;;;;;9.97;41.69;100131.09;5050523;28;20563;-61
2022/01/29 11:26:40;;;;;;;8.20;6.27;;;;;;;10.21;41.04;100132.66;5050399;28;20196;-60
2022/01/29 11:29:28;;;;;;;7.00;5.93;;;;;;;10.32;40.87;100124.44;5050600;28;20639;-60
2022/01/29 11:32:32;;;;;;;6.53;5.90;;;;;;;10.50;40.84;100124.91;5049617;28;20231;-61
2022/01/29 11:35:12;;;;;;;6.50;5.90;;;;;;;10.51;40.03;100133.50;5050816;28;20187;-61
2022/01/29 11:37:43;;;;;;;6.87;6.17;;;;;;;10.38;40.10;100128.88;5066080;28;20191;-60
2022/01/29 11:40:21;;;;;;;7.33;5.47;;;;;;;10.50;39.37;100116.31;5060354;28;20208;-61
2022/01/29 11:43:08;;;;;;;7.72;6.43;;;;;;;10.55;39.74;100120.75;5049037;28;20447;-61
2022/01/29 11:45:44;;;;;;;6.07;5.47;;;;;;;10.76;39.30;100112.75;5053518;28;20207;-61
2022/01/29 11:48:50;;;;;;;5.77;5.27;;;;;;;10.85;39.48;100118.09;5050468;28;20223;-60
2022/01/29 11:51:40;;;;;;;11.37;6.57;;;;;;;10.81;38.89;100110.28;5047043;28;20187;-61